San Jose, Costa Rica
Current Conditions -  °F | °C
As of 10:00 AM on Sunday 25 Jan 2015 (Local Time) from MROC Reporting Station
Few Clouds Few Clouds  
Wind Chill: 79°   Ceiling: Unl
Heat Index: 79°   Visibility: 6mi
Dew Point: 55°   Wind: 15mph
Humidity: 44%   Direction: 80°E
Pressure: 30.02"   Gusts: 26mph
Location:  10°N, 84.22°W
Report Text: MROC 251600Z 08013G23KT 9999 FEW040 26/13 A3002 NOSIG
Loading
Personal Weather Stations






























Interactive Weather Map New forecast layout! Learn more

10-Day Weather Forecast

Advertisements
Track Severe Weather on mobile